Time;durP1;ratioP1;P1;durP2;ratioP2;P2;SDS_P1;SDS_P2;PMS_P1;PMS_P2;Temp;Humidity;BMP_temperature;BMP_pressure;BME280_temperature;BME280_humidity;BME280_pressure;Samples;Min_cycle;Max_cycle;Signal;HPM_P1;HPM_P2
2022/12/08 00:00:49;;;;;;;8.57;2.50;;;;;;;;;;5013226;28;20030;-93
2022/12/08 00:03:16;;;;;;;8.63;2.58;;;;;;;;;;5014552;28;20029;-92
2022/12/08 00:11:16;;;;;;;12.70;2.30;;;;;;;;;;5017372;28;20119;-92
2022/12/08 00:13:43;;;;;;;14.70;2.55;;;;;;;;;;5013451;28;20133;-91
2022/12/08 00:16:09;;;;;;;10.75;2.58;;;;;;;;;;5012813;28;20076;-92
2022/12/08 00:18:35;;;;;;;7.45;1.90;;;;;;;;;;5034537;28;20029;-92
2022/12/08 00:21:02;;;;;;;11.63;2.00;;;;;;;;;;5014145;28;20117;-92
2022/12/08 00:23:28;;;;;;;8.05;1.90;;;;;;;;;;5016833;28;20022;-94
2022/12/08 00:25:54;;;;;;;8.45;2.65;;;;;;;;;;5010233;28;20060;-92
2022/12/08 00:28:20;;;;;;;7.15;2.22;;;;;;;;;;5014740;28;20029;-92
2022/12/08 00:30:46;;;;;;;12.68;2.80;;;;;;;;;;5028506;28;20161;-92
2022/12/08 00:33:12;;;;;;;14.70;2.58;;;;;;;;;;5014587;28;20029;-90
2022/12/08 00:35:39;;;;;;;9.93;2.28;;;;;;;;;;5016666;28;20017;-91
2022/12/08 00:38:05;;;;;;;14.82;2.40;;;;;;;;;;5011285;28;20033;-92
2022/12/08 00:40:31;;;;;;;11.30;2.15;;;;;;;;;;5013489;28;20025;-90
2022/12/08 00:42:57;;;;;;;5.13;2.22;;;;;;;;;;5012430;28;20025;-91
2022/12/08 00:45:23;;;;;;;9.27;2.97;;;;;;;;;;5009177;28;20082;-92
2022/12/08 00:47:50;;;;;;;7.25;2.00;;;;;;;;;;5012759;28;20133;-92
2022/12/08 00:50:16;;;;;;;8.05;2.30;;;;;;;;;;5010269;28;20041;-91
2022/12/08 00:52:42;;;;;;;7.72;2.25;;;;;;;;;;5031664;28;20060;-91
2022/12/08 00:55:08;;;;;;;9.77;2.38;;;;;;;;;;5016031;28;20033;-92
2022/12/08 00:57:35;;;;;;;12.13;2.70;;;;;;;;;;5019942;28;20117;-92
2022/12/08 01:00:01;;;;;;;11.07;2.72;;;;;;;;;;5016372;28;20033;-92
2022/12/08 01:02:27;;;;;;;9.55;2.20;;;;;;;;;;5017003;28;20034;-93
2022/12/08 01:04:53;;;;;;;6.68;2.17;;;;;;;;;;5018973;28;20037;-93
2022/12/08 01:07:19;;;;;;;7.07;2.60;;;;;;;;;;5013031;28;20225;-94
2022/12/08 01:09:46;;;;;;;12.75;3.70;;;;;;;;;;5014621;28;20034;-91
2022/12/08 01:12:12;;;;;;;12.93;2.42;;;;;;;;;;5018518;28;20563;-93
2022/12/08 01:14:38;;;;;;;7.60;2.10;;;;;;;;;;5019381;28;20141;-92
2022/12/08 01:17:04;;;;;;;13.77;2.30;;;;;;;;;;5019857;28;20072;-91
2022/12/08 01:19:30;;;;;;;7.32;1.90;;;;;;;;;;5020200;28;20124;-92
2022/12/08 01:21:56;;;;;;;8.52;2.17;;;;;;;;;;5020428;28;20132;-92
2022/12/08 01:24:23;;;;;;;6.50;2.42;;;;;;;;;;5012893;28;20036;-92
2022/12/08 01:26:50;;;;;;;11.52;2.40;;;;;;;;;;5032903;28;20022;-93
2022/12/08 01:29:16;;;;;;;5.70;2.08;;;;;;;;;;5017274;28;20248;-92
2022/12/08 01:31:42;;;;;;;11.15;2.58;;;;;;;;;;5030844;28;20049;-93
2022/12/08 01:34:10;;;;;;;3.75;1.88;;;;;;;;;;5014979;28;20099;-93
2022/12/08 01:36:37;;;;;;;5.28;2.00;;;;;;;;;;5019528;28;20036;-93
2022/12/08 01:39:04;;;;;;;5.60;1.55;;;;;;;;;;5020490;28;20036;-92
2022/12/08 01:41:32;;;;;;;12.02;2.25;;;;;;;;;;5016294;28;20036;-92
2022/12/08 01:44:03;;;;;;;7.55;2.33;;;;;;;;;;5032722;28;20029;-92
2022/12/08 01:46:33;;;;;;;13.02;2.45;;;;;;;;;;5016682;28;20132;-92
2022/12/08 01:49:11;;;;;;;7.57;2.10;;;;;;;;;;5030959;28;20520;-92
2022/12/08 01:51:52;;;;;;;9.38;1.98;;;;;;;;;;5018022;28;20014;-92
2022/12/08 01:54:20;;;;;;;11.55;2.50;;;;;;;;;;5017015;28;20038;-91
2022/12/08 01:56:50;;;;;;;10.15;2.70;;;;;;;;;;5015942;28;20168;-93
2022/12/08 01:59:16;;;;;;;8.50;2.42;;;;;;;;;;5014352;28;20025;-93
2022/12/08 02:01:43;;;;;;;8.07;2.65;;;;;;;;;;5017653;28;20075;-93
2022/12/08 02:04:09;;;;;;;5.85;3.03;;;;;;;;;;5019814;28;20226;-94
2022/12/08 02:06:38;;;;;;;6.30;2.53;;;;;;;;;;5019622;28;20049;-92
2022/12/08 02:09:05;;;;;;;16.77;3.95;;;;;;;;;;5036152;28;20196;-92
2022/12/08 02:11:31;;;;;;;6.43;2.40;;;;;;;;;;5014369;28;20124;-91
2022/12/08 02:13:58;;;;;;;12.07;3.30;;;;;;;;;;5014029;28;20147;-93
2022/12/08 02:16:24;;;;;;;12.95;3.10;;;;;;;;;;5018077;28;20035;-92
2022/12/08 02:18:57;;;;;;;13.48;2.88;;;;;;;;;;5028499;28;20024;-92
2022/12/08 02:21:42;;;;;;;9.13;2.55;;;;;;;;;;5021302;28;20197;-93
2022/12/08 02:24:27;;;;;;;6.32;2.30;;;;;;;;;;5018660;28;20124;-92
2022/12/08 02:27:10;;;;;;;11.10;2.20;;;;;;;;;;5020993;28;20037;-92
2022/12/08 02:29:40;;;;;;;9.43;2.13;;;;;;;;;;5019373;28;20438;-92
2022/12/08 02:32:23;;;;;;;8.18;2.40;;;;;;;;;;5041526;28;20022;-92
2022/12/08 02:34:49;;;;;;;11.07;3.00;;;;;;;;;;5027559;28;20112;-92
2022/12/08 02:37:35;;;;;;;7.53;2.28;;;;;;;;;;5023433;28;20071;-92
2022/12/08 02:40:07;;;;;;;5.15;2.38;;;;;;;;;;5023419;28;20048;-91
2022/12/08 02:42:48;;;;;;;6.38;2.13;;;;;;;;;;5024728;28;20025;-92
2022/12/08 02:45:22;;;;;;;7.27;2.80;;;;;;;;;;5024868;28;20033;-93
2022/12/08 02:47:49;;;;;;;7.38;2.20;;;;;;;;;;5025686;28;20369;-92
2022/12/08 02:50:15;;;;;;;8.98;2.35;;;;;;;;;;5023160;28;20030;-92
2022/12/08 02:52:46;;;;;;;8.05;2.03;;;;;;;;;;5025743;28;20022;-92
2022/12/08 02:55:22;;;;;;;8.05;2.30;;;;;;;;;;5023890;28;20025;-92
2022/12/08 02:57:48;;;;;;;8.10;2.38;;;;;;;;;;5043883;28;20025;-92
2022/12/08 03:00:16;;;;;;;12.05;2.92;;;;;;;;;;5027108;28;20072;-93
2022/12/08 03:03:08;;;;;;;8.43;2.50;;;;;;;;;;5022338;28;20025;-91
2022/12/08 03:05:47;;;;;;;10.20;2.58;;;;;;;;;;5022853;28;20039;-90
2022/12/08 03:08:28;;;;;;;8.55;2.92;;;;;;;;;;5027595;28;20499;-91
2022/12/08 03:11:10;;;;;;;12.82;3.10;;;;;;;;;;5022845;28;20065;-92
2022/12/08 03:13:47;;;;;;;14.68;2.60;;;;;;;;;;5020341;28;20057;-91
2022/12/08 03:16:16;;;;;;;8.82;2.78;;;;;;;;;;5035378;28;20030;-92
2022/12/08 03:18:47;;;;;;;8.93;3.33;;;;;;;;;;5022607;28;20041;-91
2022/12/08 03:21:15;;;;;;;9.20;2.90;;;;;;;;;;5026516;28;20499;-91
2022/12/08 03:23:42;;;;;;;7.65;2.67;;;;;;;;;;5024219;28;20021;-92
2022/12/08 03:26:11;;;;;;;18.77;2.97;;;;;;;;;;5022777;28;20033;-92
2022/12/08 03:28:38;;;;;;;7.25;2.63;;;;;;;;;;5018300;28;20026;-91
2022/12/08 03:31:06;;;;;;;14.30;2.90;;;;;;;;;;5024348;28;20029;-92
2022/12/08 03:33:34;;;;;;;11.85;2.75;;;;;;;;;;5017633;28;20030;-92
2022/12/08 03:36:02;;;;;;;10.25;2.72;;;;;;;;;;5012696;28;20126;-91
2022/12/08 03:38:36;;;;;;;11.95;2.65;;;;;;;;;;5025563;28;20053;-93
2022/12/08 03:41:17;;;;;;;8.00;2.90;;;;;;;;;;5025611;28;20112;-91
2022/12/08 03:43:50;;;;;;;12.40;3.53;;;;;;;;;;5023303;28;20029;-91
2022/12/08 03:46:17;;;;;;;7.60;3.33;;;;;;;;;;5023282;28;20026;-92
2022/12/08 03:48:43;;;;;;;13.65;3.92;;;;;;;;;;5026281;28;20107;-93
2022/12/08 03:51:09;;;;;;;10.55;3.22;;;;;;;;;;5040099;28;20036;-92
2022/12/08 03:53:36;;;;;;;13.57;3.67;;;;;;;;;;5023071;28;20025;-92
2022/12/08 03:56:06;;;;;;;10.45;3.30;;;;;;;;;;5041330;28;20044;-92
2022/12/08 03:58:32;;;;;;;11.35;3.85;;;;;;;;;;5019565;28;20026;-92
2022/12/08 04:00:59;;;;;;;17.15;3.85;;;;;;;;;;5024956;28;20408;-92
2022/12/08 04:03:25;;;;;;;16.75;3.70;;;;;;;;;;5026292;28;20070;-92
2022/12/08 04:05:51;;;;;;;14.65;3.78;;;;;;;;;;5024540;28;20061;-92
2022/12/08 04:08:18;;;;;;;12.30;3.75;;;;;;;;;;5023204;28;20065;-92
2022/12/08 04:10:44;;;;;;;16.00;3.40;;;;;;;;;;5020754;28;20053;-92
2022/12/08 04:13:10;;;;;;;11.10;3.47;;;;;;;;;;5023454;28;20028;-91
2022/12/08 04:15:36;;;;;;;16.67;3.88;;;;;;;;;;5018146;28;20068;-92
2022/12/08 04:18:02;;;;;;;17.17;3.17;;;;;;;;;;5022064;28;20365;-92
2022/12/08 04:20:29;;;;;;;13.65;3.35;;;;;;;;;;5020080;28;20049;-93
2022/12/08 04:22:55;;;;;;;9.57;3.53;;;;;;;;;;5022607;28;20111;-91
2022/12/08 04:25:21;;;;;;;17.33;3.30;;;;;;;;;;5033961;28;20398;-92
2022/12/08 04:27:47;;;;;;;34.33;3.80;;;;;;;;;;5017459;28;20053;-94
2022/12/08 04:30:13;;;;;;;12.60;3.33;;;;;;;;;;5020183;28;20100;-91
2022/12/08 04:32:40;;;;;;;8.20;2.92;;;;;;;;;;5019549;28;20045;-92
2022/12/08 04:35:06;;;;;;;15.25;3.85;;;;;;;;;;5023347;28;20071;-92
2022/12/08 04:37:32;;;;;;;15.05;4.88;;;;;;;;;;5019492;28;20024;-92
2022/12/08 04:39:59;;;;;;;11.25;3.42;;;;;;;;;;5020607;28;20137;-93
2022/12/08 04:42:25;;;;;;;15.82;3.92;;;;;;;;;;5019404;28;20244;-92
2022/12/08 04:44:51;;;;;;;27.60;5.32;;;;;;;;;;5017484;28;20128;-93
2022/12/08 04:47:18;;;;;;;11.55;2.92;;;;;;;;;;5016165;28;20085;-93
2022/12/08 04:49:44;;;;;;;16.13;3.88;;;;;;;;;;5017196;28;20053;-92
2022/12/08 04:52:10;;;;;;;10.18;3.42;;;;;;;;;;5019435;28;20060;-90
2022/12/08 04:54:36;;;;;;;14.50;4.22;;;;;;;;;;5017686;28;20034;-92
2022/12/08 04:57:06;;;;;;;9.40;3.63;;;;;;;;;;5022039;28;20022;-93
2022/12/08 04:59:32;;;;;;;11.18;3.03;;;;;;;;;;5020688;28;20411;-93
2022/12/08 05:01:58;;;;;;;8.90;2.45;;;;;;;;;;5021413;28;20099;-93
2022/12/08 05:04:24;;;;;;;17.77;3.42;;;;;;;;;;5019421;28;20090;-92
2022/12/08 05:06:50;;;;;;;11.82;2.83;;;;;;;;;;5019993;28;20020;-92
2022/12/08 05:09:17;;;;;;;11.02;3.13;;;;;;;;;;5036806;28;20135;-91
2022/12/08 05:11:43;;;;;;;7.25;2.78;;;;;;;;;;5017943;28;20018;-93
2022/12/08 05:14:14;;;;;;;13.57;3.70;;;;;;;;;;5016835;28;20487;-93
2022/12/08 05:16:40;;;;;;;9.13;2.85;;;;;;;;;;5022192;28;20113;-92
2022/12/08 05:19:07;;;;;;;8.00;2.97;;;;;;;;;;5021112;28;20109;-92
2022/12/08 05:21:33;;;;;;;14.88;3.17;;;;;;;;;;5017696;28;20547;-92
2022/12/08 05:24:00;;;;;;;11.45;3.30;;;;;;;;;;5020617;28;20119;-92
2022/12/08 05:26:26;;;;;;;14.95;4.00;;;;;;;;;;5039843;28;20026;-92
2022/12/08 05:28:52;;;;;;;22.90;3.90;;;;;;;;;;5019305;28;20132;-92
2022/12/08 05:31:18;;;;;;;11.20;3.35;;;;;;;;;;5035472;28;20025;-92
2022/12/08 05:33:45;;;;;;;10.48;3.28;;;;;;;;;;5018709;28;20124;-92
2022/12/08 05:36:13;;;;;;;12.10;3.33;;;;;;;;;;5019386;28;20021;-91
2022/12/08 05:38:39;;;;;;;10.57;3.42;;;;;;;;;;5016431;28;20366;-91
2022/12/08 05:41:06;;;;;;;9.55;4.28;;;;;;;;;;5014378;28;20510;-91
2022/12/08 05:43:32;;;;;;;9.05;3.38;;;;;;;;;;5032077;28;20059;-91
2022/12/08 05:45:59;;;;;;;11.13;3.47;;;;;;;;;;5017921;28;20502;-92
2022/12/08 05:48:25;;;;;;;14.75;3.80;;;;;;;;;;5028855;28;20833;-92
2022/12/08 05:50:51;;;;;;;11.13;3.90;;;;;;;;;;5019924;28;20041;-92
2022/12/08 05:53:18;;;;;;;17.25;3.78;;;;;;;;;;5027250;28;20406;-91
2022/12/08 05:55:45;;;;;;;9.18;4.05;;;;;;;;;;5015543;28;20029;-92
2022/12/08 05:58:16;;;;;;;15.18;3.88;;;;;;;;;;5021648;28;20029;-92
2022/12/08 06:00:42;;;;;;;11.23;3.25;;;;;;;;;;5033361;28;20329;-92
2022/12/08 06:03:08;;;;;;;13.10;3.50;;;;;;;;;;5020414;28;20598;-91
2022/12/08 06:05:35;;;;;;;16.77;3.97;;;;;;;;;;5032947;28;20028;-91
2022/12/08 06:08:01;;;;;;;10.77;3.28;;;;;;;;;;5017760;28;20156;-93
2022/12/08 06:10:28;;;;;;;9.50;2.92;;;;;;;;;;5033537;28;20657;-91
2022/12/08 06:12:54;;;;;;;7.80;2.97;;;;;;;;;;5018922;28;20013;-92
2022/12/08 06:15:20;;;;;;;17.45;3.60;;;;;;;;;;5009472;28;20117;-92
2022/12/08 06:17:46;;;;;;;14.20;3.33;;;;;;;;;;5019608;28;20029;-91
2022/12/08 06:20:12;;;;;;;9.55;2.65;;;;;;;;;;5017060;28;20145;-92
2022/12/08 06:22:39;;;;;;;7.03;2.13;;;;;;;;;;5021249;28;20128;-91
2022/12/08 06:25:05;;;;;;;10.65;2.70;;;;;;;;;;5018975;28;20026;-92
2022/12/08 06:27:32;;;;;;;11.38;2.45;;;;;;;;;;5019422;28;20021;-91
2022/12/08 06:29:59;;;;;;;9.00;2.92;;;;;;;;;;5018033;28;20566;-91
2022/12/08 06:32:25;;;;;;;9.45;2.83;;;;;;;;;;5018754;28;20053;-92
2022/12/08 06:34:52;;;;;;;11.50;3.00;;;;;;;;;;5017355;28;20072;-92
2022/12/08 06:37:18;;;;;;;11.95;3.35;;;;;;;;;;5015492;28;20055;-93
2022/12/08 06:39:45;;;;;;;9.60;2.88;;;;;;;;;;5018168;28;20059;-92
2022/12/08 06:44:56;;;;;;;11.55;3.47;;;;;;;;;;5013124;28;20049;-91
2022/12/08 06:47:22;;;;;;;9.85;3.03;;;;;;;;;;5016812;28;20456;-90
2022/12/08 06:49:48;;;;;;;18.05;3.50;;;;;;;;;;5019915;28;20346;-92
2022/12/08 06:52:15;;;;;;;8.68;2.63;;;;;;;;;;5013226;28;20328;-91
2022/12/08 06:54:41;;;;;;;8.95;2.50;;;;;;;;;;5018598;28;20132;-91
2022/12/08 06:57:07;;;;;;;10.85;2.55;;;;;;;;;;5014742;28;20112;-91
2022/12/08 06:59:33;;;;;;;12.57;3.35;;;;;;;;;;5015687;28;20033;-92
2022/12/08 07:01:59;;;;;;;10.75;2.78;;;;;;;;;;5016340;28;20310;-92
2022/12/08 07:04:26;;;;;;;8.65;2.67;;;;;;;;;;5016296;28;20353;-92
2022/12/08 07:06:52;;;;;;;15.15;2.80;;;;;;;;;;5011714;28;20075;-91
2022/12/08 07:09:18;;;;;;;12.38;2.90;;;;;;;;;;5018480;28;20041;-92
2022/12/08 07:11:44;;;;;;;15.57;2.92;;;;;;;;;;5018126;28;20060;-92
2022/12/08 07:14:10;;;;;;;11.30;3.13;;;;;;;;;;5017231;28;20094;-92
2022/12/08 07:16:38;;;;;;;16.65;3.65;;;;;;;;;;5015381;28;20080;-92
2022/12/08 07:19:04;;;;;;;11.60;2.75;;;;;;;;;;5014071;28;20026;-92
2022/12/08 07:21:30;;;;;;;11.85;3.65;;;;;;;;;;5030037;28;20175;-91
2022/12/08 07:23:56;;;;;;;8.93;3.08;;;;;;;;;;5018596;28;20109;-91
2022/12/08 07:26:23;;;;;;;10.32;2.83;;;;;;;;;;5016739;28;20064;-92
2022/12/08 07:28:49;;;;;;;13.25;3.40;;;;;;;;;;5017212;28;20037;-92
2022/12/08 07:31:19;;;;;;;9.38;3.00;;;;;;;;;;5016958;28;20129;-92
2022/12/08 07:33:46;;;;;;;12.27;3.05;;;;;;;;;;5016388;28;20040;-92
2022/12/08 07:36:12;;;;;;;11.00;2.67;;;;;;;;;;5015539;28;20419;-92
2022/12/08 07:38:38;;;;;;;6.75;2.88;;;;;;;;;;5015564;28;20033;-93
2022/12/08 07:41:05;;;;;;;11.75;3.35;;;;;;;;;;5014049;28;20029;-92
2022/12/08 07:43:31;;;;;;;6.95;2.88;;;;;;;;;;5018817;28;20029;-92
2022/12/08 07:45:57;;;;;;;15.48;3.78;;;;;;;;;;5017381;28;20029;-92
2022/12/08 07:48:23;;;;;;;9.45;3.13;;;;;;;;;;5014788;28;20116;-93
2022/12/08 07:50:49;;;;;;;8.93;3.08;;;;;;;;;;5015259;28;20725;-90
2022/12/08 07:53:16;;;;;;;5.88;3.15;;;;;;;;;;5015677;28;20605;-91
2022/12/08 07:55:42;;;;;;;7.90;3.42;;;;;;;;;;5016768;28;20071;-91
2022/12/08 07:58:09;;;;;;;8.70;3.00;;;;;;;;;;5020612;28;20083;-92
2022/12/08 08:00:36;;;;;;;15.18;4.30;;;;;;;;;;5034606;28;20498;-92
2022/12/08 08:03:02;;;;;;;14.50;3.70;;;;;;;;;;5019349;28;20210;-91
2022/12/08 08:05:28;;;;;;;18.50;3.95;;;;;;;;;;5019247;28;20025;-91
2022/12/08 08:07:55;;;;;;;13.82;3.70;;;;;;;;;;5019331;28;20160;-92
2022/12/08 08:10:21;;;;;;;9.95;3.58;;;;;;;;;;5021292;28;20041;-92
2022/12/08 08:12:47;;;;;;;16.83;3.70;;;;;;;;;;5037222;28;20548;-92
2022/12/08 08:15:13;;;;;;;14.98;5.70;;;;;;;;;;5018711;28;20192;-93
2022/12/08 08:17:42;;;;;;;18.55;5.25;;;;;;;;;;5016630;28;20033;-93
2022/12/08 08:20:08;;;;;;;11.98;4.45;;;;;;;;;;5013234;28;20040;-93
2022/12/08 08:22:38;;;;;;;17.40;4.45;;;;;;;;;;5018324;28;20124;-92
2022/12/08 08:25:04;;;;;;;13.90;4.20;;;;;;;;;;5015694;28;20034;-91
2022/12/08 08:27:33;;;;;;;19.80;4.18;;;;;;;;;;5017317;28;20037;-94
2022/12/08 08:30:00;;;;;;;11.80;3.70;;;;;;;;;;5016284;28;20033;-93
2022/12/08 08:32:26;;;;;;;11.82;3.53;;;;;;;;;;5017114;28;20021;-93
2022/12/08 08:34:52;;;;;;;15.63;3.58;;;;;;;;;;5016913;28;20117;-93
2022/12/08 08:37:21;;;;;;;7.93;3.00;;;;;;;;;;5019176;28;20032;-93
2022/12/08 08:39:48;;;;;;;19.38;4.40;;;;;;;;;;5019192;28;20027;-92
2022/12/08 08:42:14;;;;;;;15.50;4.05;;;;;;;;;;5016629;28;20133;-93
2022/12/08 08:44:40;;;;;;;15.10;4.22;;;;;;;;;;5019019;28;20033;-93
2022/12/08 08:47:09;;;;;;;11.27;4.50;;;;;;;;;;5019907;28;20018;-93
2022/12/08 08:49:38;;;;;;;10.93;3.90;;;;;;;;;;5019988;28;20741;-94
2022/12/08 08:52:05;;;;;;;10.82;4.38;;;;;;;;;;5019536;28;20087;-93
2022/12/08 08:54:31;;;;;;;10.07;3.42;;;;;;;;;;5020299;28;20026;-93
2022/12/08 08:56:58;;;;;;;15.00;4.53;;;;;;;;;;5020609;28;20120;-94
2022/12/08 08:59:25;;;;;;;15.02;3.90;;;;;;;;;;5020616;28;20040;-93
2022/12/08 09:01:51;;;;;;;14.00;4.95;;;;;;;;;;5035888;28;20030;-93
2022/12/08 09:04:17;;;;;;;10.35;3.80;;;;;;;;;;5016673;28;20467;-92
2022/12/08 09:06:47;;;;;;;9.77;4.47;;;;;;;;;;5013366;28;20052;-92
2022/12/08 09:09:14;;;;;;;9.18;3.80;;;;;;;;;;5014469;28;20126;-93
2022/12/08 09:11:40;;;;;;;10.50;3.55;;;;;;;;;;5017510;28;20029;-94
2022/12/08 09:14:06;;;;;;;8.98;3.60;;;;;;;;;;5015729;28;20017;-94
2022/12/08 09:16:32;;;;;;;15.20;4.25;;;;;;;;;;5018453;28;20029;-93
2022/12/08 09:18:59;;;;;;;12.43;4.00;;;;;;;;;;5022635;28;20052;-93
2022/12/08 09:21:26;;;;;;;9.98;4.13;;;;;;;;;;5019149;28;20128;-93
2022/12/08 09:23:53;;;;;;;15.63;3.38;;;;;;;;;;5039391;22;20049;-73
2022/12/08 09:26:21;;;;;;;10.45;3.75;;;;;;;;;;5021948;28;20132;-75
2022/12/08 09:28:48;;;;;;;8.48;3.60;;;;;;;;;;5021263;28;20071;-76
2022/12/08 09:31:15;;;;;;;6.75;3.75;;;;;;;;;;5022515;28;20092;-75
2022/12/08 09:33:42;;;;;;;16.30;4.30;;;;;;;;;;5022463;28;20129;-75
2022/12/08 09:36:10;;;;;;;13.68;4.50;;;;;;;;;;5021532;28;20048;-75
2022/12/08 09:38:36;;;;;;;13.50;3.90;;;;;;;;;;5022366;28;20064;-76
2022/12/08 09:41:04;;;;;;;23.73;4.10;;;;;;;;;;5023853;28;20029;-76
2022/12/08 09:43:45;;;;;;;14.80;4.10;;;;;;;;;;5021026;28;20084;-74
2022/12/08 09:46:14;;;;;;;19.17;4.70;;;;;;;;;;5021060;28;20037;-75
2022/12/08 09:48:46;;;;;;;12.13;3.90;;;;;;;;;;5021240;28;20056;-78
2022/12/08 09:51:14;;;;;;;12.20;4.10;;;;;;;;;;5022573;28;20911;-74
2022/12/08 09:53:50;;;;;;;14.05;4.18;;;;;;;;;;5019095;28;20057;-75
2022/12/08 09:56:21;;;;;;;15.68;5.35;;;;;;;;;;5016266;28;20021;-74
2022/12/08 09:58:49;;;;;;;11.60;4.57;;;;;;;;;;5022465;28;20049;-75
2022/12/08 10:01:15;;;;;;;18.00;5.05;;;;;;;;;;5018635;28;20037;-74
2022/12/08 10:03:42;;;;;;;14.05;4.47;;;;;;;;;;5022167;28;20017;-74
2022/12/08 10:06:11;;;;;;;14.75;5.22;;;;;;;;;;5015414;28;20136;-74
2022/12/08 10:08:43;;;;;;;10.75;4.80;;;;;;;;;;5021701;28;20037;-74
2022/12/08 10:11:15;;;;;;;16.05;5.15;;;;;;;;;;5015035;28;20029;-75
2022/12/08 10:13:52;;;;;;;10.02;4.70;;;;;;;;;;5001822;28;20493;-74
2022/12/08 10:16:24;;;;;;;16.33;5.43;;;;;;;;;;5002284;28;20052;-76
2022/12/08 10:19:01;;;;;;;16.65;5.18;;;;;;;;;;5002179;28;20041;-74
2022/12/08 10:21:28;;;;;;;14.35;5.22;;;;;;;;;;4997267;28;20630;-79
2022/12/08 10:24:02;;;;;;;11.73;4.70;;;;;;;;;;4998888;28;20383;-81
2022/12/08 10:26:31;;;;;;;14.57;6.05;;;;;;;;;;4995822;28;20025;-83
2022/12/08 10:29:00;;;;;;;24.77;5.55;;;;;;;;;;4997291;28;20026;-79
2022/12/08 10:31:26;;;;;;;88.00;9.10;;;;;;;;;;4994388;28;20117;-81
2022/12/08 10:34:13;;;;;;;18.98;5.57;;;;;;;;;;5001215;28;20379;-72
2022/12/08 10:36:53;;;;;;;18.05;5.35;;;;;;;;;;4999961;28;20889;-76
2022/12/08 10:39:33;;;;;;;14.13;4.68;;;;;;;;;;5000881;28;20026;-75
2022/12/08 10:42:16;;;;;;;9.93;4.30;;;;;;;;;;5003426;28;20030;-76
2022/12/08 10:45:00;;;;;;;17.13;4.80;;;;;;;;;;5001444;28;20022;-77
2022/12/08 10:47:27;;;;;;;14.88;4.85;;;;;;;;;;4999642;28;20041;-75
2022/12/08 10:50:12;;;;;;;15.68;4.53;;;;;;;;;;4994244;28;20260;-73
2022/12/08 10:52:39;;;;;;;11.43;4.40;;;;;;;;;;5002253;28;20026;-71
2022/12/08 10:55:25;;;;;;;12.25;4.07;;;;;;;;;;5002660;28;20499;-75
2022/12/08 10:57:52;;;;;;;18.23;4.25;;;;;;;;;;4997249;28;20036;-74
2022/12/08 11:00:20;;;;;;;10.18;4.25;;;;;;;;;;5003163;28;20014;-72
2022/12/08 11:02:55;;;;;;;14.48;3.75;;;;;;;;;;5000382;28;20072;-74
2022/12/08 11:05:25;;;;;;;9.45;3.60;;;;;;;;;;5002395;28;20145;-73
2022/12/08 11:07:52;;;;;;;14.57;4.07;;;;;;;;;;5001942;28;20025;-73
2022/12/08 11:10:19;;;;;;;15.48;4.70;;;;;;;;;;5002189;28;20077;-71
2022/12/08 11:12:46;;;;;;;12.00;4.13;;;;;;;;;;5000049;28;20370;-75
2022/12/08 11:15:17;;;;;;;20.05;4.22;;;;;;;;;;5000882;28;20065;-75
2022/12/08 11:17:46;;;;;;;18.73;4.25;;;;;;;;;;4999953;28;20026;-74
2022/12/08 11:20:12;;;;;;;9.02;4.68;;;;;;;;;;4996130;28;20026;-72
2022/12/08 11:22:42;;;;;;;9.68;4.43;;;;;;;;;;4999431;28;20030;-74
2022/12/08 11:25:10;;;;;;;13.95;3.83;;;;;;;;;;4997169;28;20033;-71
2022/12/08 11:27:40;;;;;;;8.95;4.00;;;;;;;;;;5000814;28;20055;-71
2022/12/08 11:30:14;;;;;;;12.48;4.32;;;;;;;;;;4995125;28;20088;-72
2022/12/08 11:32:43;;;;;;;7.13;4.32;;;;;;;;;;5001542;28;20108;-70
2022/12/08 11:35:14;;;;;;;14.63;5.22;;;;;;;;;;5001738;28;20032;-72
2022/12/08 11:37:41;;;;;;;10.32;3.90;;;;;;;;;;4994816;28;20017;-72
2022/12/08 11:40:14;;;;;;;9.13;3.67;;;;;;;;;;4996555;28;20022;-72
2022/12/08 11:42:59;;;;;;;9.35;3.70;;;;;;;;;;5000063;28;20018;-71
2022/12/08 11:45:27;;;;;;;13.10;4.18;;;;;;;;;;4998941;28;20152;-74
2022/12/08 11:48:01;;;;;;;10.23;3.92;;;;;;;;;;5001216;28;20395;-72
2022/12/08 11:50:39;;;;;;;9.85;3.38;;;;;;;;;;5001113;28;20041;-71
2022/12/08 11:53:11;;;;;;;13.43;3.50;;;;;;;;;;4999981;28;20422;-72
2022/12/08 11:55:38;;;;;;;;;;;;;;;;;;4998977;28;20033;-77
2022/12/08 11:58:16;;;;;;;12.18;3.80;;;;;;;;;;5001793;28;19941;-72
2022/12/08 12:00:42;;;;;;;12.35;3.65;;;;;;;;;;5000317;28;20045;-72
2022/12/08 12:03:18;;;;;;;13.13;3.70;;;;;;;;;;5001568;28;20026;-73
2022/12/08 12:05:53;;;;;;;9.32;4.28;;;;;;;;;;5002021;28;20026;-72
2022/12/08 12:08:26;;;;;;;13.73;3.80;;;;;;;;;;4994101;28;20029;-72
2022/12/08 12:11:10;;;;;;;7.82;3.03;;;;;;;;;;5001231;28;20126;-72
2022/12/08 12:13:43;;;;;;;8.98;3.40;;;;;;;;;;5001405;28;20041;-72
2022/12/08 12:16:12;;;;;;;10.38;3.65;;;;;;;;;;5000907;28;20036;-72
2022/12/08 12:18:45;;;;;;;9.27;3.17;;;;;;;;;;4998766;28;20178;-74
2022/12/08 12:21:21;;;;;;;7.05;4.15;;;;;;;;;;4991041;28;20455;-73
2022/12/08 12:23:47;;;;;;;9.57;2.88;;;;;;;;;;4999460;28;20115;-73
2022/12/08 12:26:22;;;;;;;12.57;4.68;;;;;;;;;;5001233;28;20018;-73
2022/12/08 12:29:00;;;;;;;7.25;3.13;;;;;;;;;;5000894;28;20068;-73
2022/12/08 12:31:31;;;;;;;11.07;3.80;;;;;;;;;;5001201;28;20026;-73
2022/12/08 12:34:11;;;;;;;12.82;4.07;;;;;;;;;;4999544;28;20025;-74
2022/12/08 12:36:55;;;;;;;9.93;3.63;;;;;;;;;;5002015;28;20053;-74
2022/12/08 12:39:24;;;;;;;13.10;3.00;;;;;;;;;;4995173;28;20398;-74
2022/12/08 12:42:03;;;;;;;12.55;3.70;;;;;;;;;;5000794;28;20091;-73
2022/12/08 12:44:32;;;;;;;11.13;3.47;;;;;;;;;;4994376;28;20026;-74
2022/12/08 12:47:00;;;;;;;9.43;3.63;;;;;;;;;;5000956;28;20022;-73
2022/12/08 12:49:35;;;;;;;15.35;3.33;;;;;;;;;;5000935;28;20065;-74
2022/12/08 12:52:02;;;;;;;11.35;3.17;;;;;;;;;;5005347;28;20464;-73
2022/12/08 12:54:28;;;;;;;10.88;3.30;;;;;;;;;;5003407;28;20018;-74
2022/12/08 12:56:55;;;;;;;11.63;3.25;;;;;;;;;;5004672;28;20038;-73
2022/12/08 12:59:30;;;;;;;12.30;3.13;;;;;;;;;;5004599;28;20041;-73
2022/12/08 13:01:57;;;;;;;11.85;3.10;;;;;;;;;;5005903;28;20034;-73
2022/12/08 13:04:30;;;;;;;14.55;3.75;;;;;;;;;;5005254;28;20022;-73
2022/12/08 13:06:57;;;;;;;11.60;3.50;;;;;;;;;;5003457;28;20026;-73
2022/12/08 13:09:28;;;;;;;13.73;3.80;;;;;;;;;;5004790;28;20029;-73
2022/12/08 13:11:56;;;;;;;14.57;3.28;;;;;;;;;;5004743;28;20317;-73
2022/12/08 13:14:43;;;;;;;14.63;3.55;;;;;;;;;;5004537;28;20033;-73
2022/12/08 13:17:12;;;;;;;9.40;3.10;;;;;;;;;;5004184;28;20022;-73
2022/12/08 13:19:39;;;;;;;10.23;3.55;;;;;;;;;;5002913;28;20383;-73
2022/12/08 13:22:25;;;;;;;10.68;3.35;;;;;;;;;;5004694;28;20014;-74
2022/12/08 13:24:51;;;;;;;12.98;3.45;;;;;;;;;;5004365;28;20050;-73
2022/12/08 13:27:32;;;;;;;9.30;2.80;;;;;;;;;;5004301;28;20026;-73
2022/12/08 13:30:17;;;;;;;10.07;4.00;;;;;;;;;;5002938;28;20387;-73
2022/12/08 13:32:56;;;;;;;9.90;3.33;;;;;;;;;;4999030;28;20301;-73
2022/12/08 13:35:23;;;;;;;10.35;3.67;;;;;;;;;;4999624;28;20522;-73
2022/12/08 13:37:50;;;;;;;12.45;3.13;;;;;;;;;;5004808;28;20375;-73
2022/12/08 13:40:18;;;;;;;9.65;2.95;;;;;;;;;;5004754;28;20032;-76
2022/12/08 13:42:57;;;;;;;14.80;4.03;;;;;;;;;;4999939;28;20025;-74
2022/12/08 13:45:28;;;;;;;10.82;2.95;;;;;;;;;;4998341;28;20029;-73
2022/12/08 13:48:00;;;;;;;12.05;3.97;;;;;;;;;;5001440;28;20541;-73
2022/12/08 13:50:26;;;;;;;;;;;;;;;;;;5005338;28;20040;-73
2022/12/08 13:52:57;;;;;;;9.75;3.08;;;;;;;;;;5004184;28;19913;-74
2022/12/08 13:55:23;;;;;;;;;;;;;;;;;;5004625;28;20018;-74
2022/12/08 13:57:50;;;;;;;8.43;2.97;;;;;;;;;;5002718;28;19911;-75
2022/12/08 14:00:17;;;;;;;11.23;3.00;;;;;;;;;;5003777;28;20034;-76
2022/12/08 14:02:45;;;;;;;9.00;3.15;;;;;;;;;;5004516;28;20365;-73
2022/12/08 14:05:11;;;;;;;13.32;2.97;;;;;;;;;;5004269;28;20632;-74
2022/12/08 14:07:39;;;;;;;8.90;3.10;;;;;;;;;;5004172;28;20029;-74
2022/12/08 14:10:16;;;;;;;9.73;2.72;;;;;;;;;;5002513;28;20636;-73
2022/12/08 14:12:45;;;;;;;9.48;3.03;;;;;;;;;;5002984;28;20113;-73
2022/12/08 14:15:13;;;;;;;7.32;3.47;;;;;;;;;;5003881;28;20033;-73
2022/12/08 14:17:40;;;;;;;12.63;3.50;;;;;;;;;;5004004;28;20026;-75
2022/12/08 14:20:12;;;;;;;14.02;3.47;;;;;;;;;;5002316;28;20104;-75
2022/12/08 14:22:39;;;;;;;10.32;3.13;;;;;;;;;;5002962;28;20033;-73
2022/12/08 14:25:07;;;;;;;8.65;3.10;;;;;;;;;;5003784;28;20160;-73
2022/12/08 14:27:37;;;;;;;10.43;3.38;;;;;;;;;;5004316;28;20025;-73
2022/12/08 14:30:06;;;;;;;15.30;3.80;;;;;;;;;;5003234;28;20486;-73
2022/12/08 14:32:32;;;;;;;20.08;6.43;;;;;;;;;;5004303;28;20054;-73
2022/12/08 14:35:13;;;;;;;14.77;3.35;;;;;;;;;;5003745;28;20033;-73
2022/12/08 14:37:42;;;;;;;14.20;3.55;;;;;;;;;;4995889;28;20022;-73
2022/12/08 14:40:27;;;;;;;13.63;2.55;;;;;;;;;;5003175;28;20034;-73
2022/12/08 14:43:14;;;;;;;10.35;3.05;;;;;;;;;;5003593;28;20080;-73
2022/12/08 14:45:40;;;;;;;20.20;2.95;;;;;;;;;;5001547;28;20033;-74
2022/12/08 14:48:26;;;;;;;17.02;3.33;;;;;;;;;;5002484;28;20064;-72
2022/12/08 14:51:11;;;;;;;17.63;5.13;;;;;;;;;;4997434;28;20041;-73
2022/12/08 14:53:39;;;;;;;11.30;2.90;;;;;;;;;;4993464;28;20034;-72
2022/12/08 14:56:07;;;;;;;8.60;3.45;;;;;;;;;;5001768;28;20052;-72